createdAt,value
2022-09-23T00:02:11.140Z,22.04
2022-09-23T00:04:37.868Z,22.05
2022-09-23T00:07:04.594Z,22.05
2022-09-23T00:09:32.538Z,22.03
2022-09-23T00:11:59.053Z,22.02
2022-09-23T00:14:25.588Z,22.02
2022-09-23T00:16:52.151Z,22.01
2022-09-23T00:19:18.651Z,22.00
2022-09-23T00:21:45.105Z,22.00
2022-09-23T00:24:11.603Z,21.99
2022-09-23T00:26:39.425Z,21.98
2022-09-23T00:29:05.961Z,21.97
2022-09-23T00:31:32.460Z,21.97
2022-09-23T00:34:01.220Z,21.95
2022-09-23T00:36:28.947Z,21.95
2022-09-23T00:38:55.881Z,21.94
2022-09-23T00:41:22.889Z,21.93
2022-09-23T00:43:53.043Z,21.90
2022-09-23T00:46:23.327Z,21.91
2022-09-23T00:48:55.641Z,21.90
2022-09-23T00:51:27.801Z,21.90
2022-09-23T00:53:54.394Z,21.90
2022-09-23T00:56:24.173Z,21.89
2022-09-23T00:58:53.714Z,21.87
2022-09-23T01:01:20.589Z,21.87
2022-09-23T01:03:47.576Z,21.87
2022-09-23T01:06:14.425Z,21.86
2022-09-23T01:08:42.902Z,21.85
2022-09-23T01:11:18.707Z,21.85
2022-09-23T01:13:57.668Z,21.83
2022-09-23T01:16:30.000Z,21.84
2022-09-23T01:19:05.826Z,21.82
2022-09-23T01:21:44.701Z,21.82
2022-09-23T01:24:48.354Z,21.81
2022-09-23T01:27:26.491Z,21.80
2022-09-23T01:30:19.505Z,21.79
2022-09-23T01:33:13.841Z,21.79
2022-09-23T01:35:47.818Z,21.77
2022-09-23T01:38:22.833Z,21.76
2022-09-23T01:40:55.922Z,21.77
2022-09-23T01:43:27.830Z,21.76
2022-09-23T01:45:58.121Z,21.75
2022-09-23T01:48:32.535Z,21.74
2022-09-23T01:51:05.480Z,21.74
2022-09-23T01:53:38.941Z,21.74
2022-09-23T01:56:13.928Z,21.73
2022-09-23T01:58:45.032Z,21.73
2022-09-23T02:01:17.294Z,21.71
2022-09-23T02:03:49.661Z,21.72
2022-09-23T02:06:21.230Z,21.70
2022-09-23T02:08:52.825Z,21.70
2022-09-23T02:11:19.446Z,21.69
2022-09-23T02:13:50.301Z,21.68
2022-09-23T02:16:26.417Z,21.68
2022-09-23T02:18:58.179Z,21.68
2022-09-23T02:21:27.537Z,21.67
2022-09-23T02:24:02.311Z,21.67
2022-09-23T02:26:33.702Z,21.66
2022-09-23T02:29:09.293Z,21.64
2022-09-23T02:31:39.016Z,21.65
2022-09-23T02:34:18.384Z,21.64
2022-09-23T02:36:54.315Z,21.62
2022-09-23T02:39:25.776Z,21.63
2022-09-23T02:41:58.385Z,21.62
2022-09-23T02:44:25.740Z,21.62
2022-09-23T02:46:52.252Z,21.61
2022-09-23T02:49:23.092Z,21.60
2022-09-23T02:51:50.871Z,21.61
2022-09-23T02:54:20.001Z,21.59
2022-09-23T02:56:46.582Z,21.59
2022-09-23T02:59:13.242Z,21.58
2022-09-23T03:01:47.674Z,21.57
2022-09-23T03:04:21.322Z,21.58
2022-09-23T03:06:57.795Z,21.58
2022-09-23T03:09:29.887Z,21.56
2022-09-23T03:12:05.514Z,21.56
2022-09-23T03:14:40.987Z,21.55
2022-09-23T03:17:14.442Z,21.55
2022-09-23T03:19:47.357Z,21.54
2022-09-23T03:22:18.365Z,21.54
2022-09-23T03:24:49.667Z,21.53
2022-09-23T03:27:23.904Z,21.53
2022-09-23T03:29:53.675Z,21.51
2022-09-23T03:32:23.524Z,21.51
2022-09-23T03:34:53.568Z,21.50
2022-09-23T03:37:26.319Z,21.50
2022-09-23T03:39:57.294Z,21.50
2022-09-23T03:42:26.659Z,21.49
2022-09-23T03:44:54.873Z,21.50
2022-09-23T03:47:22.208Z,21.48
2022-09-23T03:49:49.745Z,21.49
2022-09-23T03:52:17.210Z,21.48
2022-09-23T03:54:44.843Z,21.46
2022-09-23T03:57:12.656Z,21.46
2022-09-23T03:59:39.306Z,21.46
2022-09-23T04:02:06.636Z,21.46
2022-09-23T04:04:33.637Z,21.43
2022-09-23T04:07:00.359Z,21.45
2022-09-23T04:09:26.890Z,21.45
2022-09-23T04:11:54.741Z,21.44
2022-09-23T04:14:22.337Z,21.43
2022-09-23T04:16:49.691Z,21.44
2022-09-23T04:19:16.938Z,21.44
2022-09-23T04:21:44.620Z,21.44
2022-09-23T04:24:11.941Z,21.43
2022-09-23T04:26:39.464Z,21.43
2022-09-23T04:29:07.632Z,21.40
2022-09-23T04:31:34.433Z,21.41
2022-09-23T04:34:00.998Z,21.40
2022-09-23T04:36:27.657Z,21.39
2022-09-23T04:38:54.149Z,21.39
2022-09-23T04:41:20.716Z,21.38
2022-09-23T04:43:47.254Z,21.38
2022-09-23T04:46:15.888Z,21.38
2022-09-23T04:48:43.454Z,21.38
2022-09-23T04:51:12.260Z,21.37
2022-09-23T04:53:40.867Z,21.37
2022-09-23T04:56:10.075Z,21.37
2022-09-23T04:58:36.592Z,21.36
2022-09-23T05:01:08.998Z,21.35
2022-09-23T05:03:37.161Z,21.35
2022-09-23T05:06:04.024Z,21.36
2022-09-23T05:08:30.521Z,21.35
2022-09-23T05:10:57.624Z,21.34
2022-09-23T05:13:24.178Z,21.34
2022-09-23T05:15:57.250Z,21.34
2022-09-23T05:18:23.778Z,21.34
2022-09-23T05:20:54.126Z,21.34
2022-09-23T05:23:20.710Z,21.34
2022-09-23T05:25:47.263Z,21.33
2022-09-23T05:28:13.875Z,21.32
2022-09-23T05:30:40.348Z,21.32
2022-09-23T05:33:06.839Z,21.31
2022-09-23T05:35:33.292Z,21.32
2022-09-23T05:38:01.125Z,21.31
2022-09-23T05:40:27.685Z,21.31
2022-09-23T05:42:54.222Z,21.32
2022-09-23T05:45:20.704Z,21.31
2022-09-23T05:47:47.208Z,21.31
2022-09-23T05:50:13.724Z,21.30
2022-09-23T05:52:40.213Z,21.30
2022-09-23T05:55:08.668Z,21.30
2022-09-23T05:57:35.145Z,21.31
2022-09-23T06:00:02.253Z,21.31
2022-09-23T06:02:28.801Z,21.30
2022-09-23T06:04:55.328Z,21.30
2022-09-23T06:07:21.800Z,21.30
2022-09-23T06:09:48.294Z,21.29
2022-09-23T06:12:16.129Z,21.29
2022-09-23T06:14:42.620Z,21.31
2022-09-23T06:17:09.079Z,21.32
2022-09-23T06:19:35.619Z,21.30
2022-09-23T06:22:02.096Z,21.31
2022-09-23T06:24:31.324Z,21.31
2022-09-23T06:26:58.299Z,21.31
2022-09-23T06:29:26.147Z,21.32
2022-09-23T06:31:52.693Z,21.33
2022-09-23T06:34:19.730Z,21.34
2022-09-23T06:36:46.873Z,21.35
2022-09-23T06:39:14.447Z,21.35
2022-09-23T06:41:41.137Z,21.37
2022-09-23T06:44:07.771Z,21.37
2022-09-23T06:46:35.716Z,21.39
2022-09-23T06:49:02.266Z,21.41
2022-09-23T06:51:28.740Z,21.44
2022-09-23T06:53:55.199Z,21.45
2022-09-23T06:56:21.765Z,21.49
2022-09-23T06:58:48.776Z,21.51
2022-09-23T07:01:17.053Z,21.53
2022-09-23T07:03:46.308Z,21.55
2022-09-23T07:06:13.043Z,21.58
2022-09-23T07:08:43.338Z,21.60
2022-09-23T07:11:10.429Z,21.65
2022-09-23T07:13:36.996Z,21.71
2022-09-23T07:16:03.742Z,21.76
2022-09-23T07:18:36.173Z,21.82
2022-09-23T07:21:10.110Z,21.89
2022-09-23T07:23:36.665Z,21.95
2022-09-23T07:26:03.517Z,21.99
2022-09-23T07:28:30.084Z,22.02
2022-09-23T07:31:00.278Z,22.07
2022-09-23T07:33:32.267Z,22.10
2022-09-23T07:35:59.405Z,22.12
2022-09-23T07:38:27.247Z,22.15
2022-09-23T07:40:53.763Z,22.20
2022-09-23T07:43:20.286Z,22.23
2022-09-23T07:45:46.765Z,22.27
2022-09-23T07:48:13.284Z,22.30
2022-09-23T07:50:40.308Z,22.33
2022-09-23T07:53:06.873Z,22.37
2022-09-23T07:55:34.960Z,22.40
2022-09-23T07:58:01.551Z,22.45
2022-09-23T08:00:28.023Z,22.51
2022-09-23T08:02:54.567Z,22.55
2022-09-23T08:05:21.138Z,22.57
2022-09-23T08:07:47.604Z,22.62
2022-09-23T08:10:14.177Z,22.65
2022-09-23T08:12:42.001Z,22.70
2022-09-23T08:15:09.275Z,22.72
2022-09-23T08:17:35.765Z,22.75
2022-09-23T08:20:02.439Z,22.78
2022-09-23T08:22:28.914Z,22.81
2022-09-23T08:24:56.679Z,22.87
2022-09-23T08:27:23.522Z,22.90
2022-09-23T08:29:51.352Z,22.93
2022-09-23T08:32:17.806Z,22.95
2022-09-23T08:34:44.295Z,22.98
2022-09-23T08:37:10.970Z,23.01
2022-09-23T08:39:37.478Z,23.04
2022-09-23T08:42:14.023Z,23.06
2022-09-23T08:44:47.877Z,23.09
2022-09-23T08:47:21.108Z,23.13
2022-09-23T08:49:56.949Z,23.19
2022-09-23T08:52:31.557Z,23.21
2022-09-23T08:54:58.075Z,23.22
2022-09-23T08:57:38.394Z,23.22
2022-09-23T09:00:06.130Z,23.23
2022-09-23T09:02:35.961Z,23.23
2022-09-23T09:05:08.290Z,23.23
2022-09-23T09:07:38.341Z,23.23
2022-09-23T09:10:15.045Z,23.25
2022-09-23T09:12:45.040Z,23.27
2022-09-23T09:15:14.723Z,23.29
2022-09-23T09:17:51.308Z,23.28
2022-09-23T09:20:23.359Z,23.29
2022-09-23T09:22:55.422Z,23.29
2022-09-23T09:25:36.192Z,23.27
2022-09-23T09:28:03.230Z,23.27
2022-09-23T09:30:30.942Z,23.28
2022-09-23T09:33:02.166Z,23.28
2022-09-23T09:35:34.832Z,23.28
2022-09-23T09:38:01.475Z,23.28
2022-09-23T09:40:28.033Z,23.28
2022-09-23T09:42:54.560Z,23.28
2022-09-23T09:45:33.743Z,23.29
2022-09-23T09:48:09.014Z,23.30
2022-09-23T09:50:45.279Z,23.33
2022-09-23T09:53:19.759Z,23.34
2022-09-23T09:55:58.860Z,23.39
2022-09-23T09:58:34.385Z,23.42
2022-09-23T10:01:01.323Z,23.47
2022-09-23T10:03:38.751Z,23.52
2022-09-23T10:06:18.378Z,23.56
2022-09-23T10:08:57.819Z,23.60
2022-09-23T10:11:24.322Z,23.66
2022-09-23T10:14:04.359Z,23.71
2022-09-23T10:16:33.536Z,23.78
2022-09-23T10:19:03.109Z,23.86
2022-09-23T10:21:33.856Z,23.92
2022-09-23T10:24:02.423Z,23.99
2022-09-23T10:26:30.829Z,24.03
2022-09-23T10:28:57.345Z,24.06
2022-09-23T10:31:25.728Z,24.08
2022-09-23T10:33:54.018Z,24.10
2022-09-23T10:36:21.951Z,24.11
2022-09-23T10:38:52.144Z,24.11
2022-09-23T10:41:28.603Z,24.12
2022-09-23T10:44:05.471Z,24.09
2022-09-23T10:46:36.411Z,24.08
2022-09-23T10:49:52.129Z,24.09
2022-09-23T10:52:35.812Z,24.07
2022-09-23T10:55:16.084Z,24.06
2022-09-23T10:57:55.430Z,24.05
2022-09-23T11:00:28.684Z,24.04
2022-09-23T11:03:07.609Z,24.06
2022-09-23T11:05:41.220Z,24.06
2022-09-23T11:08:28.059Z,24.02
2022-09-23T11:11:12.730Z,24.01
2022-09-23T11:13:59.938Z,24.01
2022-09-23T11:16:40.072Z,24.01
2022-09-23T11:19:26.556Z,24.00
2022-09-23T11:22:10.440Z,24.00
2022-09-23T11:25:11.557Z,24.00
2022-09-23T11:28:00.166Z,23.99
2022-09-23T11:30:36.475Z,23.98
2022-09-23T11:33:16.166Z,23.97
2022-09-23T11:35:47.909Z,23.97
2022-09-23T11:38:20.072Z,23.94
2022-09-23T11:40:52.286Z,23.96
2022-09-23T11:43:21.182Z,23.96
2022-09-23T11:45:53.340Z,23.97
2022-09-23T11:48:24.999Z,23.99
2022-09-23T11:50:58.603Z,24.02
2022-09-23T11:53:36.181Z,24.05
2022-09-23T11:56:10.571Z,24.10
2022-09-23T11:58:45.459Z,24.16
2022-09-23T12:01:35.828Z,24.22
2022-09-23T12:04:18.415Z,24.26
2022-09-23T12:06:52.409Z,24.28
2022-09-23T12:09:47.330Z,24.31
2022-09-23T12:12:25.050Z,24.35
2022-09-23T12:14:59.792Z,24.38
2022-09-23T12:17:43.256Z,24.34
2022-09-23T12:20:26.997Z,24.25
2022-09-23T12:23:02.665Z,24.16
2022-09-23T12:25:40.481Z,24.07
2022-09-23T12:28:15.009Z,24.00
2022-09-23T12:30:42.569Z,23.97
2022-09-23T12:33:16.247Z,23.94
2022-09-23T12:35:45.242Z,23.91
2022-09-23T12:38:13.722Z,23.89
2022-09-23T12:40:40.477Z,23.87
2022-09-23T12:43:16.517Z,23.85
2022-09-23T12:45:43.172Z,23.84
2022-09-23T12:48:46.469Z,23.84
2022-09-23T12:51:16.595Z,23.83
2022-09-23T12:53:58.712Z,23.80
2022-09-23T12:56:57.124Z,23.78
2022-09-23T12:59:27.462Z,23.80
2022-09-23T13:01:55.132Z,23.83
2022-09-23T13:04:51.668Z,23.86
2022-09-23T13:07:23.503Z,23.90
2022-09-23T13:09:52.585Z,23.96
2022-09-23T13:12:25.357Z,24.03
2022-09-23T13:14:55.625Z,24.05
2022-09-23T13:17:25.843Z,24.07
2022-09-23T13:19:59.842Z,24.06
2022-09-23T13:22:56.351Z,24.07
2022-09-23T13:25:25.490Z,24.09
2022-09-23T13:27:56.237Z,24.06
2022-09-23T13:30:26.590Z,24.05
2022-09-23T13:33:02.706Z,24.07
2022-09-23T13:35:34.436Z,24.07
2022-09-23T13:38:09.985Z,24.08
2022-09-23T13:40:37.367Z,24.11
2022-09-23T13:43:08.861Z,24.10
2022-09-23T13:45:40.746Z,24.05
2022-09-23T13:48:11.151Z,24.01
2022-09-23T13:50:39.293Z,23.98
2022-09-23T13:53:08.665Z,23.94
2022-09-23T13:55:37.210Z,23.92
2022-09-23T13:58:05.732Z,23.91
2022-09-23T14:00:34.910Z,23.90
2022-09-23T14:03:03.684Z,23.90
2022-09-23T14:05:35.458Z,23.93
2022-09-23T14:08:02.496Z,23.96
2022-09-23T14:10:29.147Z,24.00
2022-09-23T14:12:56.661Z,24.02
2022-09-23T14:15:23.481Z,24.02
2022-09-23T14:17:52.548Z,24.01
2022-09-23T14:20:22.095Z,24.01
2022-09-23T14:22:48.657Z,24.04
2022-09-23T14:25:17.626Z,24.06
2022-09-23T14:27:44.844Z,24.07
2022-09-23T14:30:15.181Z,24.10
2022-09-23T14:32:42.095Z,24.11
2022-09-23T14:35:20.940Z,24.10
2022-09-23T14:37:51.035Z,24.11
2022-09-23T14:40:19.977Z,24.10
2022-09-23T14:42:49.861Z,24.07
2022-09-23T14:45:20.296Z,24.02
2022-09-23T14:47:50.370Z,23.98
2022-09-23T14:50:21.309Z,23.94
2022-09-23T14:52:49.226Z,23.92
2022-09-23T14:55:16.612Z,23.91
2022-09-23T14:57:43.191Z,23.87
2022-09-23T15:00:16.698Z,23.87
2022-09-23T15:02:45.432Z,23.84
2022-09-23T15:05:15.828Z,23.80
2022-09-23T15:07:47.952Z,23.77
2022-09-23T15:10:18.979Z,23.76
2022-09-23T15:12:46.850Z,23.75
2022-09-23T15:15:14.694Z,23.75
2022-09-23T15:17:41.345Z,23.80
2022-09-23T15:20:17.639Z,23.83
2022-09-23T15:22:47.181Z,23.84
2022-09-23T15:25:18.129Z,23.85
2022-09-23T15:27:57.464Z,23.86
2022-09-23T15:30:24.390Z,23.88
2022-09-23T15:32:51.073Z,23.87
2022-09-23T15:35:19.569Z,23.85
2022-09-23T15:37:50.339Z,23.83
2022-09-23T15:40:22.675Z,23.78
2022-09-23T15:42:50.273Z,23.75
2022-09-23T15:45:16.594Z,23.70
2022-09-23T15:47:43.160Z,23.67
2022-09-23T15:50:12.362Z,23.65
2022-09-23T15:52:39.069Z,23.67
2022-09-23T15:55:14.727Z,23.69
2022-09-23T15:57:41.236Z,23.69
2022-09-23T16:00:11.409Z,23.68
2022-09-23T16:02:39.466Z,23.65
2022-09-23T16:05:06.577Z,23.67
2022-09-23T16:07:33.227Z,23.65
2022-09-23T16:09:59.706Z,23.64
2022-09-23T16:12:27.596Z,23.64
2022-09-23T16:14:54.068Z,23.64
2022-09-23T16:17:20.562Z,23.63
2022-09-23T16:19:47.058Z,23.63
2022-09-23T16:22:15.227Z,23.61
2022-09-23T16:24:41.806Z,23.56
2022-09-23T16:27:11.766Z,23.54
2022-09-23T16:29:39.624Z,23.51
2022-09-23T16:32:06.148Z,23.48
2022-09-23T16:34:32.686Z,23.46
2022-09-23T16:36:59.158Z,23.45
2022-09-23T16:39:25.789Z,23.44
2022-09-23T16:41:52.272Z,23.45
2022-09-23T16:44:18.764Z,23.43
2022-09-23T16:46:46.594Z,23.40
2022-09-23T16:49:13.105Z,23.37
2022-09-23T16:51:39.870Z,23.35
2022-09-23T16:54:09.100Z,23.32
2022-09-23T16:56:37.006Z,23.31
2022-09-23T16:59:05.091Z,23.29
2022-09-23T17:01:31.862Z,23.28
2022-09-23T17:03:59.897Z,23.26
2022-09-23T17:06:26.403Z,23.25
2022-09-23T17:08:53.293Z,23.25
2022-09-23T17:11:20.029Z,23.24
2022-09-23T17:13:46.900Z,23.24
2022-09-23T17:16:23.452Z,23.23
2022-09-23T17:18:49.977Z,23.22
2022-09-23T17:21:17.809Z,23.23
2022-09-23T17:23:44.293Z,23.21
2022-09-23T17:26:10.914Z,23.21
2022-09-23T17:28:37.426Z,23.19
2022-09-23T17:31:06.090Z,23.16
2022-09-23T17:33:33.992Z,23.15
2022-09-23T17:36:06.306Z,23.13
2022-09-23T17:38:34.938Z,23.12
2022-09-23T17:41:02.278Z,23.11
2022-09-23T17:43:28.792Z,23.08
2022-09-23T17:45:57.375Z,23.07
2022-09-23T17:48:24.284Z,23.05
2022-09-23T17:50:54.842Z,23.04
2022-09-23T17:53:21.589Z,23.02
2022-09-23T17:55:56.594Z,23.01
2022-09-23T17:58:24.895Z,23.00
2022-09-23T18:00:51.525Z,22.99
2022-09-23T18:03:18.072Z,22.97
2022-09-23T18:05:44.562Z,22.97
2022-09-23T18:08:11.038Z,22.96
2022-09-23T18:10:37.517Z,22.95
2022-09-23T18:13:05.415Z,22.95
2022-09-23T18:15:35.258Z,22.94
2022-09-23T18:18:01.817Z,22.92
2022-09-23T18:20:28.530Z,22.93
2022-09-23T18:22:55.065Z,22.92
2022-09-23T18:25:38.084Z,22.91
2022-09-23T18:28:07.213Z,22.89
2022-09-23T18:30:33.733Z,22.90
2022-09-23T18:33:00.357Z,22.89
2022-09-23T18:35:26.828Z,22.90
2022-09-23T18:37:53.345Z,22.90
2022-09-23T18:40:19.872Z,22.90
2022-09-23T18:42:46.437Z,22.90
2022-09-23T18:45:14.337Z,22.92
2022-09-23T18:47:40.828Z,22.94
2022-09-23T18:50:10.614Z,22.92
2022-09-23T18:52:37.086Z,22.90
2022-09-23T18:55:04.172Z,22.89
2022-09-23T18:57:30.630Z,22.88
2022-09-23T18:59:57.122Z,22.86
2022-09-23T19:02:24.988Z,22.84
2022-09-23T19:04:51.473Z,22.83
2022-09-23T19:07:17.961Z,22.82
2022-09-23T19:09:44.436Z,22.81
2022-09-23T19:12:10.917Z,22.80
2022-09-23T19:14:37.425Z,22.80
2022-09-23T19:17:03.906Z,22.78
2022-09-23T19:19:31.712Z,22.78
2022-09-23T19:21:58.182Z,22.78
2022-09-23T19:24:24.741Z,22.76
2022-09-23T19:26:53.940Z,22.75
2022-09-23T19:29:20.719Z,22.74
2022-09-23T19:31:48.544Z,22.74
2022-09-23T19:34:17.498Z,22.74
2022-09-23T19:36:47.024Z,22.73
2022-09-23T19:39:16.305Z,22.72
2022-09-23T19:41:42.968Z,22.71
2022-09-23T19:44:09.523Z,22.70
2022-09-23T19:46:38.165Z,22.69
2022-09-23T19:49:06.036Z,22.70
2022-09-23T19:51:33.457Z,22.71
2022-09-23T19:54:01.196Z,22.66
2022-09-23T19:56:27.668Z,22.64
2022-09-23T19:58:54.304Z,22.65
2022-09-23T20:01:21.833Z,22.64
2022-09-23T20:03:48.665Z,22.63
2022-09-23T20:06:16.565Z,22.61
2022-09-23T20:08:43.873Z,22.61
2022-09-23T20:11:14.289Z,22.60
2022-09-23T20:13:42.838Z,22.60
2022-09-23T20:16:10.078Z,22.59
2022-09-23T20:18:37.285Z,22.59
2022-09-23T20:21:04.039Z,22.58
2022-09-23T20:23:30.513Z,22.58
2022-09-23T20:25:57.242Z,22.57
2022-09-23T20:28:25.059Z,22.56
2022-09-23T20:30:51.544Z,22.56
2022-09-23T20:33:18.035Z,22.56
2022-09-23T20:35:50.634Z,22.55
2022-09-23T20:38:17.112Z,22.54
2022-09-23T20:40:43.632Z,22.54
2022-09-23T20:43:10.148Z,22.54
2022-09-23T20:45:37.963Z,22.52
2022-09-23T20:48:04.645Z,22.54
2022-09-23T20:50:31.124Z,22.52
2022-09-23T20:52:57.618Z,22.52
2022-09-23T20:55:24.110Z,22.52
2022-09-23T20:57:50.641Z,22.51
2022-09-23T21:00:17.114Z,22.52
2022-09-23T21:02:45.029Z,22.50
2022-09-23T21:05:11.521Z,22.50
2022-09-23T21:07:38.008Z,22.49
2022-09-23T21:10:05.911Z,22.48
2022-09-23T21:12:32.433Z,22.48
2022-09-23T21:14:58.909Z,22.47
2022-09-23T21:17:25.366Z,22.47
2022-09-23T21:19:53.194Z,22.45
2022-09-23T21:22:19.655Z,22.45
2022-09-23T21:25:25.897Z,22.44
2022-09-23T21:27:32.606Z,22.44
2022-09-23T21:29:59.085Z,22.43
2022-09-23T21:32:25.554Z,22.42
2022-09-23T21:34:54.574Z,22.41
2022-09-23T21:37:21.036Z,22.40
2022-09-23T21:39:47.533Z,22.39
2022-09-23T21:42:14.034Z,22.37
2022-09-23T21:44:40.723Z,22.36
2022-09-23T21:47:07.302Z,22.35
2022-09-23T21:49:33.886Z,22.35
2022-09-23T21:52:02.172Z,22.33
2022-09-23T21:54:28.670Z,22.30
2022-09-23T21:56:55.129Z,22.31
2022-09-23T21:59:21.581Z,22.29
2022-09-23T22:01:53.229Z,22.28
2022-09-23T22:04:20.832Z,22.27
2022-09-23T22:06:47.599Z,22.27
2022-09-23T22:09:17.723Z,22.24
2022-09-23T22:11:44.485Z,22.25
2022-09-23T22:14:12.523Z,22.23
2022-09-23T22:16:39.646Z,22.22
2022-09-23T22:19:06.564Z,22.21
2022-09-23T22:21:35.345Z,22.20
2022-09-23T22:24:03.801Z,22.19
2022-09-23T22:26:34.968Z,22.17
2022-09-23T22:29:01.739Z,22.17
2022-09-23T22:31:28.263Z,22.17
2022-09-23T22:33:54.798Z,22.16
2022-09-23T22:36:21.298Z,22.15
2022-09-23T22:38:47.906Z,22.14
2022-09-23T22:41:14.370Z,22.14
2022-09-23T22:43:42.205Z,22.12
2022-09-23T22:46:08.698Z,22.12
2022-09-23T22:48:35.255Z,22.12
2022-09-23T22:51:03.949Z,22.11
2022-09-23T22:53:30.462Z,22.10
2022-09-23T22:55:57.818Z,22.10
2022-09-23T22:58:32.283Z,22.09
2022-09-23T23:01:00.585Z,22.08
2022-09-23T23:03:27.159Z,22.08
2022-09-23T23:05:53.678Z,22.08
2022-09-23T23:08:20.162Z,22.08
2022-09-23T23:10:46.654Z,22.08
2022-09-23T23:13:13.117Z,22.07
2022-09-23T23:15:40.305Z,22.06
2022-09-23T23:18:08.189Z,22.05
2022-09-23T23:20:34.674Z,22.04
2022-09-23T23:23:01.553Z,22.04
2022-09-23T23:25:28.369Z,22.03
2022-09-23T23:27:54.939Z,22.03
2022-09-23T23:30:21.855Z,22.02
2022-09-23T23:32:48.399Z,22.02
2022-09-23T23:35:16.513Z,22.01
2022-09-23T23:37:43.036Z,22.01
2022-09-23T23:40:10.552Z,22.00
2022-09-23T23:42:37.094Z,22.00
2022-09-23T23:45:04.452Z,22.01
2022-09-23T23:47:30.753Z,21.97
2022-09-23T23:49:57.206Z,21.98
2022-09-23T23:52:25.045Z,21.98
2022-09-23T23:54:51.518Z,21.97
2022-09-23T23:57:18.001Z,21.95
2022-09-23T23:59:44.498Z,21.96
